Terminal Aerodrome Forecast
Issued by NWS

Home | Current Version | Previous Version | Text Only | Print | Product List | Glossary On
Versions: 1 2 3 4 5 6 7 8 9 10 11 12 13 14 15 16 17 18 19
000
FTUS42 KGSP 232320
TAFGMU
TAF
KGMU 232320Z 2400/2424 04005KT P6SM SCT060
      TEMPO 2400/2404 BKN060
     FM240400 05003KT P6SM BKN070
     FM240900 08003KT 2SM BR BKN003
     FM241400 15004KT P6SM BKN020
     FM241700 18006KT P6SM SCT050
     FM242100 19008G17KT P6SM SCT200=

USA.gov is the U.S. government's official web portal to all federal, state and local government web resources and services.